Terminal Aerodrome Forecast
Issued by NWS

Home | Current Version | Previous Version | Text Only | Print | Product List | Glossary On
Versions: 1 2 3 4 5 6 7 8 9 10 11 12 13
108
FTUS45 KABQ 252340
TAFLVS
TAF
KLVS 252340Z 2600/2624 03008KT P6SM VCSH SCT080 BKN120
     FM260130 08008KT P6SM VCSH SCT060 BKN100
      TEMPO 2603/2607 VRB20G30KT -SHRA BKN045
     FM260700 14006KT 6SM -RA BKN030
     FM260900 20008KT P6SM VCSH SCT030 BKN080
     FM261500 20011KT P6SM SCT060 SCT120
     FM262000 23015G23KT P6SM VCSH SCT070 BKN110=

USA.gov is the U.S. government's official web portal to all federal, state and local government web resources and services.